CheckWX is a tool to help pilots better visualize weather data.  It is not intended as a substitute for an official pre-flight weather briefing.

10:23:19 UTC

KCEU METAR
Oconee County Regional Airport
Clemson, South Carolina, USA
Current

29 mins ago

KCEU 160954Z AUTO 35003KT 10SM CLR 23/22 A3015 RMK AO2 SLP196 T02280217
Observed
Jul-16 @ 09:54 UTC
Wind
  • 350° at 3 KTS
Visibility
10 SM
Flight Rules
VFR
Cloud Levels
  • Clear skies
Temperature
23°C / 73°F
Dewpoint
22°C / 72°F
Humidity
94%
Altimeter
30.15" Hg
Pressure
1021.02 hPa
Previous

1 hour ago

KCEU 160854Z AUTO 36003KT 10SM CLR 23/21 A3013 RMK AO2 SLP191 T02330211 55002
Observed
Jul-16 @ 08:54 UTC
Wind
  • 360° at 3 KTS
Visibility
10 SM
Flight Rules
VFR
Cloud Levels
  • Clear skies
Temperature
23°C / 73°F
Dewpoint
21°C / 70°F
Humidity
89%
Altimeter
30.13" Hg
Pressure
1020.32 hPa
Previous

2 hours ago

KCEU 160754Z AUTO 32003KT 10SM CLR 23/22 A3012 RMK AO2 SLP187 T02280222
Observed
Jul-16 @ 07:54 UTC
Wind
  • 320° at 3 KTS
Visibility
10 SM
Flight Rules
VFR
Cloud Levels
  • Clear skies
Temperature
23°C / 73°F
Dewpoint
22°C / 72°F
Humidity
94%
Altimeter
30.12" Hg
Pressure
1020.02 hPa